Snelling, CA (95369)

16:32 PST le 28 février 2015 (GMT -0800)
Denair | Change Station
CLOSE
Current Station
Stations météorologiques personnelles
Location: Denair, CA
Altitude: 246 ft
Stations météo à proximité

Alt. 246 ft 37.52 °N, 120.62 °W | Updated 11 seconds ago

Couvert
Couvert
58.5 ° F
Paraît 58.5 ° F
N
2.5
Vent Variable Vent de SO
Gusts 4.9 mph

Aujourd'hui
Haut(e) -- | Bas -- ° F
--% Risque de précip.
Hier
Haut(e) -- | Bas -- ° F
Precip. -- pouce
6:34 AM 5:54 PM
Lune gibbeuse croissante, 81% visible
Pression 29.80 pouce
Visibilité 7.0 Miles terrestres
Nuages Peu 2000 ft
Nuages épars 3000 ft
Nuages épars 7000 ft
Point de rosée 44 ° F
Humidité 58%
Précipitations 0.00 pouce
Profondeur de la couche neigeuse Non disponible.
UV 1.0 sur 12
Pollen 4.50 sur 12
Qualité de l'air Non disponible.
Flu Activity Non disponible.
METAR KMER 282345Z 23007KT 7SM FEW020 SCT030 SCT070 12/08 A2980

More Conditions Fewer Conditions

Pression 29.80 pouce
Visibilité 7.0 Miles terrestres
Nuages Peu 2000 ft
Nuages épars 3000 ft
Nuages épars 7000 ft
Point de rosée 44 ° F
Humidité 58%
Précipitations 0.00 pouce
Profondeur de la couche neigeuse Non disponible.
UV 1.0 sur 12
Pollen 4.50 sur 12
Qualité de l'air Non disponible.
Flu Activity Non disponible.
METAR KMER 282345Z 23007KT 7SM FEW020 SCT030 SCT070 12/08 A2980

More Conditions Fewer Conditions

10-Day Weather Forecast

Almanac

Astronomie

Feb. 28, 2015 Lever Coucher
Temps réel
Crépuscule civil
Crépuscule nautique
Crépuscule astronomique
Lune
Durée de lumière visible
Longueur du jour
Tomorrow will be .
, % of the Moon is Illuminated

Extrêmes aujourd'hui

State Highs State Lows

Community

WunderPhotos

Upload Photos

1,801,191 Photos téléchargées !

WunderBlogs® & News

Nearby

Qualité de l'air

  Qualité de l'air Indice de la qualité de l'air Polluant
Not available.

Épaisseur de neige

Station Depth Altitude

Activité sismique

Ville Distance Mag. Time & Date
Minimum magnitude displayed is 2.5.

Températures des eaux côtières

Lieu Température

Stations météo à proximité